sensor_id;sensor_type;location;lat;lon;timestamp;P1;durP1;ratioP1;P2;durP2;ratioP2
13805;SDS011;6974;53.606;9.872;2023-06-22T00:01:16;5.27;;;4.20;;
13805;SDS011;6974;53.606;9.872;2023-06-22T00:03:43;5.37;;;4.87;;
13805;SDS011;6974;53.606;9.872;2023-06-22T00:06:10;4.60;;;4.20;;
13805;SDS011;6974;53.606;9.872;2023-06-22T00:08:38;5.30;;;4.50;;
13805;SDS011;6974;53.606;9.872;2023-06-22T00:11:05;5.17;;;4.23;;
13805;SDS011;6974;53.606;9.872;2023-06-22T00:13:31;5.00;;;4.60;;
13805;SDS011;6974;53.606;9.872;2023-06-22T00:15:58;4.93;;;4.27;;
13805;SDS011;6974;53.606;9.872;2023-06-22T00:18:25;5.03;;;4.53;;
13805;SDS011;6974;53.606;9.872;2023-06-22T00:20:53;4.80;;;4.40;;
13805;SDS011;6974;53.606;9.872;2023-06-22T00:23:23;4.70;;;4.30;;
13805;SDS011;6974;53.606;9.872;2023-06-22T00:25:51;5.37;;;4.87;;
13805;SDS011;6974;53.606;9.872;2023-06-22T00:28:18;5.27;;;4.57;;
13805;SDS011;6974;53.606;9.872;2023-06-22T00:30:45;5.23;;;4.73;;
13805;SDS011;6974;53.606;9.872;2023-06-22T00:33:12;5.23;;;4.33;;
13805;SDS011;6974;53.606;9.872;2023-06-22T00:35:40;4.93;;;4.47;;
13805;SDS011;6974;53.606;9.872;2023-06-22T00:38:07;5.13;;;4.67;;
13805;SDS011;6974;53.606;9.872;2023-06-22T00:40:34;5.00;;;4.60;;
13805;SDS011;6974;53.606;9.872;2023-06-22T00:43:02;5.70;;;4.33;;
13805;SDS011;6974;53.606;9.872;2023-06-22T00:45:30;4.73;;;4.33;;
13805;SDS011;6974;53.606;9.872;2023-06-22T00:47:57;4.90;;;4.40;;
13805;SDS011;6974;53.606;9.872;2023-06-22T00:50:24;5.27;;;4.73;;
13805;SDS011;6974;53.606;9.872;2023-06-22T00:52:54;5.17;;;4.67;;
13805;SDS011;6974;53.606;9.872;2023-06-22T00:55:23;5.20;;;4.57;;
13805;SDS011;6974;53.606;9.872;2023-06-22T00:57:51;4.70;;;4.20;;
13805;SDS011;6974;53.606;9.872;2023-06-22T01:00:22;5.00;;;4.60;;
13805;SDS011;6974;53.606;9.872;2023-06-22T01:02:50;5.30;;;4.80;;
13805;SDS011;6974;53.606;9.872;2023-06-22T01:05:19;4.93;;;4.47;;
13805;SDS011;6974;53.606;9.872;2023-06-22T01:07:50;5.30;;;4.60;;
13805;SDS011;6974;53.606;9.872;2023-06-22T01:10:25;5.00;;;4.60;;
13805;SDS011;6974;53.606;9.872;2023-06-22T01:12:57;4.73;;;4.33;;
13805;SDS011;6974;53.606;9.872;2023-06-22T01:15:30;5.63;;;5.13;;
13805;SDS011;6974;53.606;9.872;2023-06-22T01:18:00;5.10;;;4.60;;
13805;SDS011;6974;53.606;9.872;2023-06-22T01:20:30;5.37;;;4.87;;
13805;SDS011;6974;53.606;9.872;2023-06-22T01:23:02;5.87;;;5.37;;
13805;SDS011;6974;53.606;9.872;2023-06-22T01:25:36;5.30;;;4.80;;
13805;SDS011;6974;53.606;9.872;2023-06-22T01:28:17;5.13;;;4.63;;
13805;SDS011;6974;53.606;9.872;2023-06-22T01:30:51;7.10;;;5.00;;
13805;SDS011;6974;53.606;9.872;2023-06-22T01:33:30;5.00;;;4.50;;
13805;SDS011;6974;53.606;9.872;2023-06-22T01:36:00;4.83;;;4.43;;
13805;SDS011;6974;53.606;9.872;2023-06-22T01:38:28;5.40;;;5.00;;
13805;SDS011;6974;53.606;9.872;2023-06-22T01:40:57;5.40;;;4.90;;
13805;SDS011;6974;53.606;9.872;2023-06-22T01:43:25;5.60;;;5.10;;
13805;SDS011;6974;53.606;9.872;2023-06-22T01:48:23;5.00;;;4.60;;
13805;SDS011;6974;53.606;9.872;2023-06-22T01:50:51;5.13;;;4.67;;
13805;SDS011;6974;53.606;9.872;2023-06-22T01:53:20;5.27;;;4.67;;
13805;SDS011;6974;53.606;9.872;2023-06-22T01:55:47;5.60;;;5.10;;
13805;SDS011;6974;53.606;9.872;2023-06-22T01:58:15;5.60;;;5.10;;
13805;SDS011;6974;53.606;9.872;2023-06-22T02:00:44;5.10;;;4.63;;
13805;SDS011;6974;53.606;9.872;2023-06-22T02:03:17;5.70;;;5.20;;
13805;SDS011;6974;53.606;9.872;2023-06-22T02:05:50;6.03;;;5.00;;
13805;SDS011;6974;53.606;9.872;2023-06-22T02:08:22;6.30;;;5.50;;
13805;SDS011;6974;53.606;9.872;2023-06-22T02:10:53;5.47;;;4.97;;
13805;SDS011;6974;53.606;9.872;2023-06-22T02:13:23;6.30;;;5.70;;
13805;SDS011;6974;53.606;9.872;2023-06-22T02:15:53;5.63;;;5.07;;
13805;SDS011;6974;53.606;9.872;2023-06-22T02:18:21;5.80;;;5.10;;
13805;SDS011;6974;53.606;9.872;2023-06-22T02:20:50;6.00;;;5.37;;
13805;SDS011;6974;53.606;9.872;2023-06-22T02:23:17;5.67;;;5.17;;
13805;SDS011;6974;53.606;9.872;2023-06-22T02:25:45;5.10;;;4.60;;
13805;SDS011;6974;53.606;9.872;2023-06-22T02:28:12;5.60;;;5.10;;
13805;SDS011;6974;53.606;9.872;2023-06-22T02:30:39;5.00;;;4.60;;
13805;SDS011;6974;53.606;9.872;2023-06-22T02:33:06;5.30;;;4.90;;
13805;SDS011;6974;53.606;9.872;2023-06-22T02:35:33;5.17;;;4.77;;
13805;SDS011;6974;53.606;9.872;2023-06-22T02:38:03;5.03;;;4.63;;
13805;SDS011;6974;53.606;9.872;2023-06-22T02:40:30;5.77;;;5.13;;
13805;SDS011;6974;53.606;9.872;2023-06-22T02:42:58;5.83;;;5.10;;
13805;SDS011;6974;53.606;9.872;2023-06-22T02:45:27;5.37;;;4.83;;
13805;SDS011;6974;53.606;9.872;2023-06-22T02:47:55;5.03;;;4.50;;
13805;SDS011;6974;53.606;9.872;2023-06-22T02:50:22;6.57;;;5.03;;
13805;SDS011;6974;53.606;9.872;2023-06-22T02:52:49;5.50;;;5.00;;
13805;SDS011;6974;53.606;9.872;2023-06-22T02:55:18;5.53;;;5.00;;
13805;SDS011;6974;53.606;9.872;2023-06-22T02:57:45;5.00;;;4.50;;
13805;SDS011;6974;53.606;9.872;2023-06-22T03:00:13;4.47;;;4.07;;
13805;SDS011;6974;53.606;9.872;2023-06-22T03:02:43;5.40;;;4.90;;
13805;SDS011;6974;53.606;9.872;2023-06-22T03:05:10;5.33;;;4.83;;
13805;SDS011;6974;53.606;9.872;2023-06-22T03:07:38;6.43;;;5.10;;
13805;SDS011;6974;53.606;9.872;2023-06-22T03:10:07;7.10;;;5.93;;
13805;SDS011;6974;53.606;9.872;2023-06-22T03:12:36;5.30;;;4.80;;
13805;SDS011;6974;53.606;9.872;2023-06-22T03:15:05;6.37;;;5.60;;
13805;SDS011;6974;53.606;9.872;2023-06-22T03:17:33;5.20;;;4.70;;
13805;SDS011;6974;53.606;9.872;2023-06-22T03:20:01;5.70;;;5.10;;
13805;SDS011;6974;53.606;9.872;2023-06-22T03:22:33;5.67;;;5.17;;
13805;SDS011;6974;53.606;9.872;2023-06-22T03:25:01;5.37;;;4.87;;
13805;SDS011;6974;53.606;9.872;2023-06-22T03:27:28;6.13;;;5.53;;
13805;SDS011;6974;53.606;9.872;2023-06-22T03:29:57;5.43;;;4.93;;
13805;SDS011;6974;53.606;9.872;2023-06-22T03:32:25;5.30;;;4.87;;
13805;SDS011;6974;53.606;9.872;2023-06-22T03:34:53;5.60;;;5.10;;
13805;SDS011;6974;53.606;9.872;2023-06-22T03:37:24;5.40;;;4.90;;
13805;SDS011;6974;53.606;9.872;2023-06-22T03:39:51;5.90;;;5.30;;
13805;SDS011;6974;53.606;9.872;2023-06-22T03:42:18;6.93;;;5.57;;
13805;SDS011;6974;53.606;9.872;2023-06-22T03:44:45;6.97;;;6.37;;
13805;SDS011;6974;53.606;9.872;2023-06-22T03:47:14;7.03;;;6.33;;
13805;SDS011;6974;53.606;9.872;2023-06-22T03:49:41;6.73;;;6.10;;
13805;SDS011;6974;53.606;9.872;2023-06-22T03:52:08;8.40;;;6.07;;
13805;SDS011;6974;53.606;9.872;2023-06-22T03:54:36;6.63;;;6.03;;
13805;SDS011;6974;53.606;9.872;2023-06-22T03:57:03;6.53;;;5.93;;
13805;SDS011;6974;53.606;9.872;2023-06-22T03:59:31;6.47;;;5.87;;
13805;SDS011;6974;53.606;9.872;2023-06-22T04:01:59;9.10;;;7.63;;
13805;SDS011;6974;53.606;9.872;2023-06-22T04:04:27;7.80;;;7.10;;
13805;SDS011;6974;53.606;9.872;2023-06-22T04:06:57;7.73;;;6.93;;
13805;SDS011;6974;53.606;9.872;2023-06-22T04:09:24;7.93;;;7.17;;
13805;SDS011;6974;53.606;9.872;2023-06-22T04:11:52;7.03;;;6.40;;
13805;SDS011;6974;53.606;9.872;2023-06-22T04:14:19;8.43;;;7.53;;
13805;SDS011;6974;53.606;9.872;2023-06-22T04:16:46;8.77;;;7.87;;
13805;SDS011;6974;53.606;9.872;2023-06-22T04:19:14;8.67;;;7.77;;
13805;SDS011;6974;53.606;9.872;2023-06-22T04:21:44;8.40;;;7.60;;
13805;SDS011;6974;53.606;9.872;2023-06-22T04:24:13;11.27;;;9.13;;
13805;SDS011;6974;53.606;9.872;2023-06-22T04:26:40;9.97;;;8.90;;
13805;SDS011;6974;53.606;9.872;2023-06-22T04:29:10;9.83;;;8.47;;
13805;SDS011;6974;53.606;9.872;2023-06-22T04:31:37;9.57;;;8.50;;
13805;SDS011;6974;53.606;9.872;2023-06-22T04:34:05;9.83;;;8.83;;
13805;SDS011;6974;53.606;9.872;2023-06-22T04:36:34;8.80;;;7.90;;
13805;SDS011;6974;53.606;9.872;2023-06-22T04:39:07;9.50;;;8.60;;
13805;SDS011;6974;53.606;9.872;2023-06-22T04:41:35;10.40;;;8.03;;
13805;SDS011;6974;53.606;9.872;2023-06-22T04:44:11;9.27;;;8.23;;
13805;SDS011;6974;53.606;9.872;2023-06-22T04:46:39;10.13;;;8.43;;
13805;SDS011;6974;53.606;9.872;2023-06-22T04:49:06;9.73;;;8.73;;
13805;SDS011;6974;53.606;9.872;2023-06-22T04:51:39;8.57;;;7.77;;
13805;SDS011;6974;53.606;9.872;2023-06-22T04:54:09;8.83;;;7.10;;
13805;SDS011;6974;53.606;9.872;2023-06-22T04:56:36;8.63;;;7.83;;
13805;SDS011;6974;53.606;9.872;2023-06-22T04:59:06;8.77;;;7.80;;
13805;SDS011;6974;53.606;9.872;2023-06-22T05:01:33;9.10;;;8.20;;
13805;SDS011;6974;53.606;9.872;2023-06-22T05:04:01;8.60;;;7.80;;
13805;SDS011;6974;53.606;9.872;2023-06-22T05:06:30;9.27;;;7.60;;
13805;SDS011;6974;53.606;9.872;2023-06-22T05:08:57;7.87;;;7.03;;
13805;SDS011;6974;53.606;9.872;2023-06-22T05:11:26;8.97;;;8.07;;
13805;SDS011;6974;53.606;9.872;2023-06-22T05:13:53;8.87;;;7.97;;
13805;SDS011;6974;53.606;9.872;2023-06-22T05:16:21;8.20;;;7.40;;
13805;SDS011;6974;53.606;9.872;2023-06-22T05:18:51;8.00;;;7.20;;
13805;SDS011;6974;53.606;9.872;2023-06-22T05:21:21;6.97;;;6.27;;
13805;SDS011;6974;53.606;9.872;2023-06-22T05:23:49;7.37;;;6.67;;
13805;SDS011;6974;53.606;9.872;2023-06-22T05:26:17;7.70;;;6.43;;
13805;SDS011;6974;53.606;9.872;2023-06-22T05:28:46;7.43;;;6.73;;
13805;SDS011;6974;53.606;9.872;2023-06-22T05:31:13;7.83;;;7.03;;
13805;SDS011;6974;53.606;9.872;2023-06-22T05:33:41;8.30;;;6.60;;
13805;SDS011;6974;53.606;9.872;2023-06-22T05:36:09;7.83;;;6.20;;
13805;SDS011;6974;53.606;9.872;2023-06-22T05:38:37;6.30;;;5.70;;
13805;SDS011;6974;53.606;9.872;2023-06-22T05:41:05;6.27;;;5.67;;
13805;SDS011;6974;53.606;9.872;2023-06-22T05:43:32;6.63;;;5.93;;
13805;SDS011;6974;53.606;9.872;2023-06-22T05:46:02;7.33;;;5.73;;
13805;SDS011;6974;53.606;9.872;2023-06-22T05:48:30;6.60;;;5.90;;
13805;SDS011;6974;53.606;9.872;2023-06-22T05:50:57;6.87;;;5.77;;
13805;SDS011;6974;53.606;9.872;2023-06-22T05:53:25;5.87;;;5.13;;
13805;SDS011;6974;53.606;9.872;2023-06-22T05:55:52;7.83;;;4.70;;
13805;SDS011;6974;53.606;9.872;2023-06-22T05:58:19;6.63;;;4.87;;
13805;SDS011;6974;53.606;9.872;2023-06-22T06:00:46;6.00;;;5.40;;
13805;SDS011;6974;53.606;9.872;2023-06-22T06:03:15;7.17;;;5.03;;
13805;SDS011;6974;53.606;9.872;2023-06-22T06:05:43;5.90;;;5.30;;
13805;SDS011;6974;53.606;9.872;2023-06-22T06:08:11;5.40;;;4.90;;
13805;SDS011;6974;53.606;9.872;2023-06-22T06:10:38;7.00;;;4.87;;
13805;SDS011;6974;53.606;9.872;2023-06-22T06:13:06;5.60;;;4.97;;
13805;SDS011;6974;53.606;9.872;2023-06-22T06:15:34;5.67;;;4.87;;
13805;SDS011;6974;53.606;9.872;2023-06-22T06:18:01;5.60;;;4.50;;
13805;SDS011;6974;53.606;9.872;2023-06-22T06:20:31;5.13;;;4.50;;
13805;SDS011;6974;53.606;9.872;2023-06-22T06:22:59;5.33;;;4.50;;
13805;SDS011;6974;53.606;9.872;2023-06-22T06:25:26;4.60;;;3.93;;
13805;SDS011;6974;53.606;9.872;2023-06-22T06:27:53;4.50;;;4.10;;
13805;SDS011;6974;53.606;9.872;2023-06-22T06:30:21;5.33;;;4.57;;
13805;SDS011;6974;53.606;9.872;2023-06-22T06:32:49;5.00;;;4.50;;
13805;SDS011;6974;53.606;9.872;2023-06-22T06:35:17;5.73;;;4.57;;
13805;SDS011;6974;53.606;9.872;2023-06-22T06:37:47;5.20;;;4.20;;
13805;SDS011;6974;53.606;9.872;2023-06-22T06:40:15;5.30;;;4.47;;
13805;SDS011;6974;53.606;9.872;2023-06-22T06:42:44;4.30;;;3.90;;
13805;SDS011;6974;53.606;9.872;2023-06-22T06:45:12;4.50;;;4.10;;
13805;SDS011;6974;53.606;9.872;2023-06-22T06:47:42;7.00;;;4.30;;
13805;SDS011;6974;53.606;9.872;2023-06-22T06:50:10;4.43;;;4.03;;
13805;SDS011;6974;53.606;9.872;2023-06-22T06:52:37;4.10;;;3.80;;
13805;SDS011;6974;53.606;9.872;2023-06-22T06:55:10;4.40;;;4.00;;
13805;SDS011;6974;53.606;9.872;2023-06-22T06:57:39;4.57;;;4.10;;
13805;SDS011;6974;53.606;9.872;2023-06-22T07:00:07;5.30;;;4.50;;
13805;SDS011;6974;53.606;9.872;2023-06-22T07:02:37;4.43;;;4.03;;
13805;SDS011;6974;53.606;9.872;2023-06-22T07:05:05;4.40;;;3.97;;
13805;SDS011;6974;53.606;9.872;2023-06-22T07:07:33;4.43;;;3.60;;
13805;SDS011;6974;53.606;9.872;2023-06-22T07:10:00;5.47;;;4.60;;
13805;SDS011;6974;53.606;9.872;2023-06-22T07:12:29;5.30;;;4.50;;
13805;SDS011;6974;53.606;9.872;2023-06-22T07:15:03;4.80;;;4.30;;
13805;SDS011;6974;53.606;9.872;2023-06-22T07:17:33;5.53;;;4.33;;
13805;SDS011;6974;53.606;9.872;2023-06-22T07:20:00;5.10;;;4.60;;
13805;SDS011;6974;53.606;9.872;2023-06-22T07:22:27;5.33;;;3.67;;
13805;SDS011;6974;53.606;9.872;2023-06-22T07:24:54;4.30;;;3.70;;
13805;SDS011;6974;53.606;9.872;2023-06-22T07:27:21;4.37;;;3.97;;
13805;SDS011;6974;53.606;9.872;2023-06-22T07:29:49;4.70;;;3.87;;
13805;SDS011;6974;53.606;9.872;2023-06-22T07:32:16;4.90;;;3.83;;
13805;SDS011;6974;53.606;9.872;2023-06-22T07:34:43;5.73;;;3.53;;
13805;SDS011;6974;53.606;9.872;2023-06-22T07:37:10;3.87;;;3.47;;
13805;SDS011;6974;53.606;9.872;2023-06-22T07:39:36;4.33;;;3.87;;
13805;SDS011;6974;53.606;9.872;2023-06-22T07:42:04;5.30;;;4.10;;
13805;SDS011;6974;53.606;9.872;2023-06-22T07:44:31;4.40;;;3.57;;
13805;SDS011;6974;53.606;9.872;2023-06-22T07:46:59;3.27;;;3.03;;
13805;SDS011;6974;53.606;9.872;2023-06-22T07:49:27;6.00;;;3.30;;
13805;SDS011;6974;53.606;9.872;2023-06-22T07:51:54;4.67;;;3.47;;
13805;SDS011;6974;53.606;9.872;2023-06-22T07:54:21;4.10;;;3.63;;
13805;SDS011;6974;53.606;9.872;2023-06-22T07:56:48;4.63;;;3.57;;
13805;SDS011;6974;53.606;9.872;2023-06-22T07:59:15;3.53;;;3.17;;
13805;SDS011;6974;53.606;9.872;2023-06-22T08:01:42;4.07;;;3.40;;
13805;SDS011;6974;53.606;9.872;2023-06-22T08:04:10;3.83;;;3.43;;
13805;SDS011;6974;53.606;9.872;2023-06-22T08:06:37;4.43;;;3.70;;
13805;SDS011;6974;53.606;9.872;2023-06-22T08:09:04;3.10;;;2.80;;
13805;SDS011;6974;53.606;9.872;2023-06-22T08:11:30;4.47;;;3.37;;
13805;SDS011;6974;53.606;9.872;2023-06-22T08:13:57;4.63;;;3.90;;
13805;SDS011;6974;53.606;9.872;2023-06-22T08:16:24;3.97;;;3.20;;
13805;SDS011;6974;53.606;9.872;2023-06-22T08:18:51;4.30;;;3.40;;
13805;SDS011;6974;53.606;9.872;2023-06-22T08:21:19;4.83;;;3.70;;
13805;SDS011;6974;53.606;9.872;2023-06-22T08:23:46;3.47;;;3.17;;
13805;SDS011;6974;53.606;9.872;2023-06-22T08:26:14;6.20;;;3.57;;
13805;SDS011;6974;53.606;9.872;2023-06-22T08:28:40;5.03;;;3.70;;
13805;SDS011;6974;53.606;9.872;2023-06-22T08:31:07;3.57;;;3.27;;
13805;SDS011;6974;53.606;9.872;2023-06-22T08:33:34;3.60;;;3.30;;
13805;SDS011;6974;53.606;9.872;2023-06-22T08:36:01;3.60;;;3.30;;
13805;SDS011;6974;53.606;9.872;2023-06-22T08:38:33;4.13;;;3.27;;
13805;SDS011;6974;53.606;9.872;2023-06-22T08:40:59;4.07;;;3.33;;
13805;SDS011;6974;53.606;9.872;2023-06-22T08:43:26;3.67;;;3.37;;
13805;SDS011;6974;53.606;9.872;2023-06-22T08:45:53;4.60;;;3.47;;
13805;SDS011;6974;53.606;9.872;2023-06-22T08:48:20;4.13;;;3.73;;
13805;SDS011;6974;53.606;9.872;2023-06-22T08:50:47;3.53;;;3.23;;
13805;SDS011;6974;53.606;9.872;2023-06-22T08:53:13;4.47;;;3.73;;
13805;SDS011;6974;53.606;9.872;2023-06-22T08:55:42;4.40;;;4.00;;
13805;SDS011;6974;53.606;9.872;2023-06-22T08:58:08;4.10;;;3.70;;
13805;SDS011;6974;53.606;9.872;2023-06-22T09:00:35;4.10;;;3.53;;
13805;SDS011;6974;53.606;9.872;2023-06-22T09:03:02;4.53;;;3.43;;
13805;SDS011;6974;53.606;9.872;2023-06-22T09:05:29;4.07;;;3.50;;
13805;SDS011;6974;53.606;9.872;2023-06-22T09:07:56;3.60;;;3.30;;
13805;SDS011;6974;53.606;9.872;2023-06-22T09:10:24;3.73;;;3.30;;
13805;SDS011;6974;53.606;9.872;2023-06-22T09:12:52;4.60;;;3.50;;
13805;SDS011;6974;53.606;9.872;2023-06-22T09:15:19;5.00;;;3.90;;
13805;SDS011;6974;53.606;9.872;2023-06-22T09:17:46;5.87;;;3.40;;
13805;SDS011;6974;53.606;9.872;2023-06-22T09:20:13;4.10;;;3.40;;
13805;SDS011;6974;53.606;9.872;2023-06-22T09:22:40;3.80;;;3.50;;
13805;SDS011;6974;53.606;9.872;2023-06-22T09:25:08;4.37;;;3.50;;
13805;SDS011;6974;53.606;9.872;2023-06-22T09:27:35;3.40;;;3.10;;
13805;SDS011;6974;53.606;9.872;2023-06-22T09:30:04;4.30;;;3.47;;
13805;SDS011;6974;53.606;9.872;2023-06-22T09:32:31;4.03;;;3.63;;
13805;SDS011;6974;53.606;9.872;2023-06-22T09:34:58;3.87;;;3.47;;
13805;SDS011;6974;53.606;9.872;2023-06-22T09:37:29;5.20;;;3.60;;
13805;SDS011;6974;53.606;9.872;2023-06-22T09:39:56;4.63;;;3.57;;
13805;SDS011;6974;53.606;9.872;2023-06-22T09:42:23;4.47;;;3.33;;
13805;SDS011;6974;53.606;9.872;2023-06-22T09:44:50;4.70;;;4.20;;
13805;SDS011;6974;53.606;9.872;2023-06-22T09:47:18;4.93;;;4.00;;
13805;SDS011;6974;53.606;9.872;2023-06-22T09:49:45;4.50;;;3.80;;
13805;SDS011;6974;53.606;9.872;2023-06-22T09:52:12;4.37;;;3.97;;
13805;SDS011;6974;53.606;9.872;2023-06-22T09:54:38;8.73;;;4.53;;
13805;SDS011;6974;53.606;9.872;2023-06-22T09:57:05;4.53;;;4.10;;
13805;SDS011;6974;53.606;9.872;2023-06-22T09:59:32;5.13;;;4.20;;
13805;SDS011;6974;53.606;9.872;2023-06-22T10:01:59;4.20;;;3.43;;
13805;SDS011;6974;53.606;9.872;2023-06-22T10:04:27;4.27;;;3.80;;
13805;SDS011;6974;53.606;9.872;2023-06-22T10:06:55;4.30;;;3.90;;
13805;SDS011;6974;53.606;9.872;2023-06-22T10:09:21;4.50;;;3.57;;
13805;SDS011;6974;53.606;9.872;2023-06-22T10:11:48;4.50;;;3.90;;
13805;SDS011;6974;53.606;9.872;2023-06-22T10:14:15;4.57;;;3.33;;
13805;SDS011;6974;53.606;9.872;2023-06-22T10:16:42;4.97;;;3.53;;
13805;SDS011;6974;53.606;9.872;2023-06-22T10:19:09;4.27;;;3.50;;
13805;SDS011;6974;53.606;9.872;2023-06-22T10:21:37;7.27;;;3.97;;
13805;SDS011;6974;53.606;9.872;2023-06-22T10:24:04;5.07;;;3.63;;
13805;SDS011;6974;53.606;9.872;2023-06-22T10:26:32;4.83;;;4.07;;
13805;SDS011;6974;53.606;9.872;2023-06-22T10:28:59;4.57;;;3.43;;
13805;SDS011;6974;53.606;9.872;2023-06-22T10:31:25;4.23;;;3.80;;
13805;SDS011;6974;53.606;9.872;2023-06-22T10:33:53;5.23;;;4.03;;
13805;SDS011;6974;53.606;9.872;2023-06-22T10:36:19;5.27;;;3.50;;
13805;SDS011;6974;53.606;9.872;2023-06-22T10:38:48;4.47;;;4.07;;
13805;SDS011;6974;53.606;9.872;2023-06-22T10:41:15;4.13;;;3.73;;
13805;SDS011;6974;53.606;9.872;2023-06-22T10:43:42;4.10;;;3.70;;
13805;SDS011;6974;53.606;9.872;2023-06-22T10:46:09;4.50;;;4.10;;
13805;SDS011;6974;53.606;9.872;2023-06-22T10:48:36;4.67;;;3.90;;
13805;SDS011;6974;53.606;9.872;2023-06-22T10:51:03;6.23;;;3.83;;
13805;SDS011;6974;53.606;9.872;2023-06-22T10:53:30;4.07;;;3.77;;
13805;SDS011;6974;53.606;9.872;2023-06-22T10:55:59;5.13;;;4.30;;
13805;SDS011;6974;53.606;9.872;2023-06-22T10:58:26;19.00;;;6.00;;
13805;SDS011;6974;53.606;9.872;2023-06-22T11:00:53;5.73;;;4.00;;
13805;SDS011;6974;53.606;9.872;2023-06-22T11:03:20;3.53;;;3.23;;
13805;SDS011;6974;53.606;9.872;2023-06-22T11:05:46;4.60;;;3.77;;
13805;SDS011;6974;53.606;9.872;2023-06-22T11:08:13;5.90;;;4.40;;
13805;SDS011;6974;53.606;9.872;2023-06-22T11:10:40;4.70;;;3.83;;
13805;SDS011;6974;53.606;9.872;2023-06-22T11:13:08;3.93;;;3.57;;
13805;SDS011;6974;53.606;9.872;2023-06-22T11:15:35;5.07;;;4.20;;
13805;SDS011;6974;53.606;9.872;2023-06-22T11:18:02;5.37;;;4.87;;
13805;SDS011;6974;53.606;9.872;2023-06-22T11:20:32;5.63;;;5.13;;
13805;SDS011;6974;53.606;9.872;2023-06-22T11:23:03;5.00;;;4.50;;
13805;SDS011;6974;53.606;9.872;2023-06-22T11:25:30;5.23;;;4.40;;
13805;SDS011;6974;53.606;9.872;2023-06-22T11:27:57;4.50;;;4.10;;
13805;SDS011;6974;53.606;9.872;2023-06-22T11:30:25;4.57;;;3.77;;
13805;SDS011;6974;53.606;9.872;2023-06-22T11:32:52;4.70;;;3.77;;
13805;SDS011;6974;53.606;9.872;2023-06-22T11:35:19;4.60;;;4.20;;
13805;SDS011;6974;53.606;9.872;2023-06-22T11:37:46;4.43;;;4.03;;
13805;SDS011;6974;53.606;9.872;2023-06-22T11:40:12;4.33;;;3.93;;
13805;SDS011;6974;53.606;9.872;2023-06-22T11:42:39;5.03;;;4.10;;
13805;SDS011;6974;53.606;9.872;2023-06-22T11:45:06;5.50;;;4.30;;
13805;SDS011;6974;53.606;9.872;2023-06-22T11:47:35;4.20;;;3.90;;
13805;SDS011;6974;53.606;9.872;2023-06-22T11:50:02;4.03;;;3.73;;
13805;SDS011;6974;53.606;9.872;2023-06-22T11:52:30;4.57;;;4.00;;
13805;SDS011;6974;53.606;9.872;2023-06-22T11:54:56;4.87;;;4.33;;
13805;SDS011;6974;53.606;9.872;2023-06-22T11:57:24;4.70;;;4.23;;
13805;SDS011;6974;53.606;9.872;2023-06-22T11:59:51;5.17;;;4.63;;
13805;SDS011;6974;53.606;9.872;2023-06-22T12:02:18;6.80;;;5.00;;
13805;SDS011;6974;53.606;9.872;2023-06-22T12:04:46;7.13;;;4.93;;
13805;SDS011;6974;53.606;9.872;2023-06-22T12:07:13;5.07;;;4.57;;
13805;SDS011;6974;53.606;9.872;2023-06-22T12:09:41;4.80;;;4.40;;
13805;SDS011;6974;53.606;9.872;2023-06-22T12:12:08;5.73;;;4.30;;
13805;SDS011;6974;53.606;9.872;2023-06-22T12:14:35;5.00;;;4.47;;
13805;SDS011;6974;53.606;9.872;2023-06-22T12:17:02;4.60;;;4.20;;
13805;SDS011;6974;53.606;9.872;2023-06-22T12:19:29;4.23;;;3.83;;
13805;SDS011;6974;53.606;9.872;2023-06-22T12:21:57;4.70;;;4.30;;
13805;SDS011;6974;53.606;9.872;2023-06-22T12:24:24;4.80;;;4.30;;
13805;SDS011;6974;53.606;9.872;2023-06-22T12:26:50;5.00;;;4.30;;
13805;SDS011;6974;53.606;9.872;2023-06-22T12:29:17;6.50;;;4.13;;
13805;SDS011;6974;53.606;9.872;2023-06-22T12:31:44;5.13;;;4.70;;
13805;SDS011;6974;53.606;9.872;2023-06-22T12:34:11;4.10;;;3.80;;
13805;SDS011;6974;53.606;9.872;2023-06-22T12:36:38;4.43;;;4.13;;
13805;SDS011;6974;53.606;9.872;2023-06-22T12:39:06;4.83;;;4.43;;
13805;SDS011;6974;53.606;9.872;2023-06-22T12:41:33;5.37;;;4.07;;
13805;SDS011;6974;53.606;9.872;2023-06-22T12:44:00;5.10;;;4.70;;
13805;SDS011;6974;53.606;9.872;2023-06-22T12:46:27;5.03;;;4.50;;
13805;SDS011;6974;53.606;9.872;2023-06-22T12:48:55;5.20;;;4.47;;
13805;SDS011;6974;53.606;9.872;2023-06-22T12:51:22;4.50;;;4.10;;
13805;SDS011;6974;53.606;9.872;2023-06-22T12:53:49;4.70;;;4.30;;
13805;SDS011;6974;53.606;9.872;2023-06-22T12:56:17;4.97;;;4.47;;
13805;SDS011;6974;53.606;9.872;2023-06-22T12:58:44;4.43;;;4.07;;
13805;SDS011;6974;53.606;9.872;2023-06-22T13:01:11;4.70;;;4.30;;
13805;SDS011;6974;53.606;9.872;2023-06-22T13:03:38;4.93;;;4.47;;
13805;SDS011;6974;53.606;9.872;2023-06-22T13:06:04;4.63;;;4.23;;
13805;SDS011;6974;53.606;9.872;2023-06-22T13:08:31;7.83;;;4.43;;
13805;SDS011;6974;53.606;9.872;2023-06-22T13:10:58;4.50;;;4.10;;
13805;SDS011;6974;53.606;9.872;2023-06-22T13:13:26;5.10;;;4.60;;
13805;SDS011;6974;53.606;9.872;2023-06-22T13:15:53;6.17;;;4.90;;
13805;SDS011;6974;53.606;9.872;2023-06-22T13:18:20;5.67;;;4.60;;
13805;SDS011;6974;53.606;9.872;2023-06-22T13:20:47;5.07;;;4.37;;
13805;SDS011;6974;53.606;9.872;2023-06-22T13:23:14;5.57;;;4.33;;
13805;SDS011;6974;53.606;9.872;2023-06-22T13:25:40;5.13;;;4.63;;
13805;SDS011;6974;53.606;9.872;2023-06-22T13:28:07;5.67;;;4.90;;
13805;SDS011;6974;53.606;9.872;2023-06-22T13:30:36;7.03;;;5.70;;
13805;SDS011;6974;53.606;9.872;2023-06-22T13:33:03;5.33;;;4.93;;
13805;SDS011;6974;53.606;9.872;2023-06-22T13:35:30;5.90;;;5.30;;
13805;SDS011;6974;53.606;9.872;2023-06-22T13:37:57;5.50;;;5.10;;
13805;SDS011;6974;53.606;9.872;2023-06-22T13:40:24;5.47;;;5.07;;
13805;SDS011;6974;53.606;9.872;2023-06-22T13:42:50;9.53;;;6.07;;
13805;SDS011;6974;53.606;9.872;2023-06-22T13:45:17;5.93;;;5.40;;
13805;SDS011;6974;53.606;9.872;2023-06-22T13:47:46;6.07;;;5.53;;
13805;SDS011;6974;53.606;9.872;2023-06-22T13:50:13;5.90;;;5.40;;
13805;SDS011;6974;53.606;9.872;2023-06-22T13:52:40;6.43;;;5.80;;
13805;SDS011;6974;53.606;9.872;2023-06-22T13:55:07;5.37;;;4.97;;
13805;SDS011;6974;53.606;9.872;2023-06-22T13:57:35;6.07;;;5.47;;
13805;SDS011;6974;53.606;9.872;2023-06-22T14:02:28;5.77;;;5.27;;
13805;SDS011;6974;53.606;9.872;2023-06-22T14:04:58;6.10;;;5.43;;
13805;SDS011;6974;53.606;9.872;2023-06-22T14:07:25;6.30;;;5.70;;
13805;SDS011;6974;53.606;9.872;2023-06-22T14:09:54;6.00;;;5.40;;
13805;SDS011;6974;53.606;9.872;2023-06-22T14:12:20;6.97;;;5.30;;
13805;SDS011;6974;53.606;9.872;2023-06-22T14:14:48;6.10;;;5.50;;
13805;SDS011;6974;53.606;9.872;2023-06-22T14:17:15;5.90;;;5.30;;
13805;SDS011;6974;53.606;9.872;2023-06-22T14:19:42;5.73;;;5.27;;
13805;SDS011;6974;53.606;9.872;2023-06-22T14:22:10;5.63;;;5.13;;
13805;SDS011;6974;53.606;9.872;2023-06-22T14:24:39;6.23;;;5.63;;
13805;SDS011;6974;53.606;9.872;2023-06-22T14:27:06;5.77;;;5.23;;
13805;SDS011;6974;53.606;9.872;2023-06-22T14:29:34;5.97;;;5.43;;
13805;SDS011;6974;53.606;9.872;2023-06-22T14:32:01;5.70;;;5.20;;
13805;SDS011;6974;53.606;9.872;2023-06-22T14:34:29;5.50;;;5.10;;
13805;SDS011;6974;53.606;9.872;2023-06-22T14:36:56;6.33;;;5.60;;
13805;SDS011;6974;53.606;9.872;2023-06-22T14:39:25;5.50;;;5.10;;
13805;SDS011;6974;53.606;9.872;2023-06-22T14:41:51;6.17;;;5.67;;
13805;SDS011;6974;53.606;9.872;2023-06-22T14:44:19;5.87;;;5.37;;
13805;SDS011;6974;53.606;9.872;2023-06-22T14:46:46;6.40;;;5.80;;
13805;SDS011;6974;53.606;9.872;2023-06-22T14:49:13;6.10;;;5.50;;
13805;SDS011;6974;53.606;9.872;2023-06-22T14:51:40;6.10;;;5.60;;
13805;SDS011;6974;53.606;9.872;2023-06-22T14:54:07;5.70;;;5.20;;
13805;SDS011;6974;53.606;9.872;2023-06-22T14:56:36;5.47;;;4.97;;
13805;SDS011;6974;53.606;9.872;2023-06-22T14:59:03;5.50;;;5.10;;
13805;SDS011;6974;53.606;9.872;2023-06-22T15:01:30;5.57;;;5.10;;
13805;SDS011;6974;53.606;9.872;2023-06-22T15:03:57;5.77;;;5.27;;
13805;SDS011;6974;53.606;9.872;2023-06-22T15:06:24;5.43;;;4.93;;
13805;SDS011;6974;53.606;9.872;2023-06-22T15:08:52;5.40;;;4.90;;